createdAt,value
2019-04-06T00:02:54.156Z,52.80
2019-04-06T00:06:58.451Z,52.47
2019-04-06T00:11:02.676Z,51.57
2019-04-06T00:15:07.295Z,53.33
2019-04-06T00:19:11.623Z,50.90
2019-04-06T00:23:15.916Z,52.63
2019-04-06T00:27:20.147Z,51.67
2019-04-06T00:31:49.482Z,53.43
2019-04-06T00:35:53.782Z,51.03
2019-04-06T00:39:58.000Z,53.03
2019-04-06T00:44:02.332Z,52.43
2019-04-06T00:48:06.622Z,55.50
2019-04-06T00:52:10.843Z,55.00
2019-04-06T00:56:15.067Z,54.63
2019-04-06T01:00:19.371Z,50.60
2019-04-06T01:04:23.690Z,56.40
2019-04-06T01:08:27.983Z,53.73
2019-04-06T01:12:32.267Z,55.03
2019-04-06T01:16:36.495Z,55.40
2019-04-06T01:20:40.792Z,58.67
2019-04-06T01:24:45.098Z,56.43
2019-04-06T01:28:49.318Z,56.73
2019-04-06T01:32:53.671Z,53.10
2019-04-06T01:36:57.854Z,55.20
2019-04-06T01:41:02.094Z,54.30
2019-04-06T01:45:06.871Z,52.97
2019-04-06T01:49:11.126Z,52.53
2019-04-06T01:53:15.351Z,53.83
2019-04-06T01:57:19.581Z,51.43
2019-04-06T02:01:43.170Z,54.90
2019-04-06T02:05:47.642Z,56.73
2019-04-06T02:09:51.864Z,55.20
2019-04-06T02:13:56.087Z,51.63
2019-04-06T02:18:00.315Z,52.27
2019-04-06T02:22:04.542Z,52.87
2019-04-06T02:26:08.769Z,55.47
2019-04-06T02:30:29.247Z,56.30
2019-04-06T02:34:58.813Z,56.73
2019-04-06T02:39:25.169Z,63.37
2019-04-06T02:43:31.918Z,61.00
2019-04-06T02:47:36.142Z,61.37
2019-04-06T02:51:40.357Z,59.97
2019-04-06T02:55:44.946Z,61.20
2019-04-06T02:59:49.124Z,63.83
2019-04-06T03:03:53.444Z,61.27
2019-04-06T03:07:57.780Z,57.97
2019-04-06T03:12:02.090Z,57.27
2019-04-06T03:16:06.332Z,54.97
2019-04-06T03:20:10.679Z,52.53
2019-04-06T03:24:14.957Z,56.93
2019-04-06T03:28:19.111Z,55.80
2019-04-06T03:32:23.375Z,53.87
2019-04-06T03:36:27.576Z,55.07
2019-04-06T03:40:31.777Z,53.63
2019-04-06T03:44:37.536Z,55.87
2019-04-06T03:48:42.024Z,55.17
2019-04-06T03:52:46.221Z,57.20
2019-04-06T03:56:50.418Z,58.10
2019-04-06T04:00:54.639Z,54.20
2019-04-06T04:04:58.872Z,51.97
2019-04-06T04:09:04.778Z,49.87
2019-04-06T04:13:09.008Z,50.93
2019-04-06T04:17:13.210Z,52.23
2019-04-06T04:21:17.430Z,50.90
2019-04-06T04:25:21.659Z,52.63
2019-04-06T04:29:25.876Z,53.57
2019-04-06T04:33:30.098Z,53.37
2019-04-06T04:37:34.397Z,51.40
2019-04-06T04:41:40.128Z,49.73
2019-04-06T04:45:44.586Z,47.70
2019-04-06T04:49:48.807Z,49.87
2019-04-06T04:53:53.114Z,49.87
2019-04-06T04:57:57.336Z,47.97
2019-04-06T05:02:01.555Z,48.27
2019-04-06T05:06:05.902Z,50.40
2019-04-06T05:10:10.127Z,48.23
2019-04-06T05:14:50.407Z,48.13
2019-04-06T05:18:54.643Z,49.63
2019-04-06T05:22:58.852Z,48.17
2019-04-06T05:27:03.188Z,47.40
2019-04-06T05:31:07.439Z,48.57
2019-04-06T05:35:11.847Z,50.17
2019-04-06T05:39:16.043Z,50.90
2019-04-06T05:43:20.283Z,49.20
2019-04-06T05:47:24.543Z,49.90
2019-04-06T05:51:28.774Z,47.90
2019-04-06T05:55:33.025Z,51.47
2019-04-06T05:59:40.306Z,51.47
2019-04-06T06:03:43.109Z,48.70
2019-04-06T06:07:47.360Z,49.30
2019-04-06T06:11:51.567Z,49.27
2019-04-06T06:15:55.832Z,47.20
2019-04-06T06:20:00.189Z,48.13
2019-04-06T06:24:04.508Z,47.90
2019-04-06T06:28:14.188Z,46.93
2019-04-06T06:32:14.691Z,48.97
2019-04-06T06:36:21.045Z,47.53
2019-04-06T06:40:25.407Z,45.83
2019-04-06T06:44:29.595Z,48.53
2019-04-06T06:48:34.065Z,48.17
2019-04-06T06:52:38.340Z,47.47
2019-04-06T06:56:42.539Z,45.90
2019-04-06T07:00:46.759Z,48.40
2019-04-06T07:04:50.984Z,47.50
2019-04-06T07:08:55.211Z,49.70
2019-04-06T07:12:59.503Z,47.90
2019-04-06T07:17:03.618Z,46.77
2019-04-06T07:21:07.999Z,47.47
2019-04-06T07:25:12.267Z,48.23
2019-04-06T07:29:16.877Z,45.90
2019-04-06T07:33:21.212Z,48.80
2019-04-06T07:37:25.581Z,48.40
2019-04-06T07:41:29.832Z,42.17
2019-04-06T07:45:34.174Z,46.23
2019-04-06T07:49:38.406Z,42.97
2019-04-06T07:53:42.627Z,42.37
2019-04-06T07:57:46.828Z,41.13
2019-04-06T08:01:51.038Z,42.27
2019-04-06T08:05:55.441Z,42.13
2019-04-06T08:09:59.890Z,41.07
2019-04-06T08:14:04.105Z,40.90
2019-04-06T08:18:08.351Z,37.77
2019-04-06T08:22:12.615Z,40.90
2019-04-06T08:26:16.860Z,40.97
2019-04-06T08:30:21.083Z,41.23
2019-04-06T08:34:25.308Z,40.93
2019-04-06T08:38:29.486Z,40.83
2019-04-06T08:42:33.729Z,38.20
2019-04-06T08:46:37.963Z,41.17
2019-04-06T08:50:42.360Z,41.97
2019-04-06T08:54:46.516Z,42.23
2019-04-06T08:58:50.714Z,41.83
2019-04-06T09:02:55.011Z,42.33
2019-04-06T09:06:59.348Z,42.20
2019-04-06T09:11:03.901Z,43.07
2019-04-06T09:15:08.419Z,41.73
2019-04-06T09:19:12.643Z,43.20
2019-04-06T09:23:16.867Z,43.73
2019-04-06T09:27:21.094Z,39.67
2019-04-06T09:31:25.314Z,41.33
2019-04-06T09:35:29.544Z,40.90
2019-04-06T09:39:33.771Z,40.00
2019-04-06T09:43:38.034Z,41.50
2019-04-06T09:48:02.385Z,42.13
2019-04-06T09:52:15.209Z,40.40
2019-04-06T09:56:26.535Z,39.83
2019-04-06T10:00:44.909Z,39.33
2019-04-06T10:05:11.166Z,40.57
2019-04-06T10:09:33.748Z,39.60
2019-04-06T10:14:03.256Z,40.93
2019-04-06T10:18:38.512Z,39.77
2019-04-06T10:22:54.615Z,37.90
2019-04-06T10:27:20.799Z,37.93
2019-04-06T10:31:44.093Z,37.47
2019-04-06T10:36:12.431Z,38.37
2019-04-06T10:40:26.870Z,37.20
2019-04-06T10:44:50.152Z,36.63
2019-04-06T10:49:19.104Z,37.90
2019-04-06T10:53:30.888Z,35.53
2019-04-06T10:57:45.859Z,36.27
2019-04-06T11:02:24.526Z,36.60
2019-04-06T11:06:44.976Z,35.00
2019-04-06T11:10:58.023Z,35.60
2019-04-06T11:15:21.319Z,35.00
2019-04-06T11:19:53.885Z,35.03
2019-04-06T11:24:16.050Z,34.07
2019-04-06T11:28:29.775Z,32.40
2019-04-06T11:32:56.063Z,33.57
2019-04-06T11:37:27.401Z,32.70
2019-04-06T11:41:45.548Z,32.30
2019-04-06T11:46:18.121Z,29.60
2019-04-06T11:50:40.299Z,29.23
2019-04-06T11:55:12.576Z,31.20
2019-04-06T11:59:38.677Z,27.40
2019-04-06T12:04:14.023Z,28.23
2019-04-06T12:08:52.907Z,27.50
2019-04-06T12:13:02.813Z,26.77
2019-04-06T12:17:19.554Z,25.50
2019-04-06T12:21:55.135Z,26.50
2019-04-06T12:26:11.119Z,24.57
2019-04-06T12:30:38.602Z,22.60
2019-04-06T12:34:58.316Z,23.53
2019-04-06T12:39:20.575Z,21.67
2019-04-06T12:43:47.054Z,18.80
2019-04-06T12:48:05.527Z,17.10
2019-04-06T12:52:24.812Z,15.77
2019-04-06T12:56:56.903Z,15.93
2019-04-06T13:01:32.646Z,15.77
2019-04-06T13:05:56.195Z,15.07
2019-04-06T13:10:17.856Z,14.97
2019-04-06T13:14:44.326Z,17.40
2019-04-06T13:19:08.064Z,16.53
2019-04-06T13:23:22.718Z,18.33
2019-04-06T13:27:41.393Z,18.33
2019-04-06T13:32:07.698Z,18.23
2019-04-06T13:36:30.972Z,20.17
2019-04-06T13:40:48.112Z,20.50
2019-04-06T13:45:14.235Z,19.30
2019-04-06T13:49:36.523Z,21.80
2019-04-06T13:53:57.037Z,20.77
2019-04-06T13:58:06.535Z,23.80
2019-04-06T14:02:32.788Z,20.73
2019-04-06T14:06:54.923Z,21.10
2019-04-06T14:11:20.983Z,20.80
2019-04-06T14:15:43.262Z,21.53
2019-04-06T14:20:18.256Z,18.63
2019-04-06T14:24:40.145Z,18.93
2019-04-06T14:29:12.662Z,16.10
2019-04-06T14:33:41.879Z,18.70
2019-04-06T14:38:14.048Z,18.67
2019-04-06T14:42:36.103Z,19.43
2019-04-06T14:46:50.868Z,21.70
2019-04-06T14:51:20.156Z,20.13
2019-04-06T14:55:49.731Z,19.90
2019-04-06T15:00:16.060Z,19.03
2019-04-06T15:04:48.838Z,19.97
2019-04-06T15:09:05.215Z,18.53
2019-04-06T15:13:25.443Z,19.67
2019-04-06T15:17:46.946Z,20.60
2019-04-06T15:22:12.562Z,20.43
2019-04-06T15:26:38.625Z,19.63
2019-04-06T15:31:07.684Z,19.97
2019-04-06T15:35:18.539Z,19.13
2019-04-06T15:39:42.061Z,18.67
2019-04-06T15:44:08.451Z,20.43
2019-04-06T15:48:39.928Z,21.00
2019-04-06T15:52:50.445Z,20.17
2019-04-06T15:57:08.687Z,21.30
2019-04-06T16:01:31.874Z,21.50
2019-04-06T16:05:45.780Z,20.60
2019-04-06T16:10:02.023Z,20.07
2019-04-06T16:14:13.674Z,21.30
2019-04-06T16:18:42.147Z,20.50
2019-04-06T16:23:05.415Z,21.87
2019-04-06T16:27:27.301Z,20.53
2019-04-06T16:31:42.379Z,23.20
2019-04-06T16:35:58.207Z,23.33
2019-04-06T16:40:20.295Z,21.80
2019-04-06T16:44:32.038Z,22.90
2019-04-06T16:48:43.286Z,23.60
2019-04-06T16:53:06.642Z,23.67
2019-04-06T16:57:45.706Z,23.30
2019-04-06T17:02:08.994Z,21.63
2019-04-06T17:06:30.814Z,22.13
2019-04-06T17:10:49.512Z,22.83
2019-04-06T17:15:12.734Z,22.90
2019-04-06T17:19:26.311Z,23.03
2019-04-06T17:23:48.419Z,22.83
2019-04-06T17:28:07.976Z,24.13
2019-04-06T17:32:17.592Z,24.67
2019-04-06T17:36:38.669Z,24.47
2019-04-06T17:40:54.637Z,22.53
2019-04-06T17:45:27.590Z,23.87
2019-04-06T17:49:50.983Z,21.87
2019-04-06T17:54:13.540Z,22.87
2019-04-06T17:58:33.338Z,23.33
2019-04-06T18:02:55.119Z,23.57
2019-04-06T18:07:18.984Z,22.33
2019-04-06T18:11:42.055Z,25.20
2019-04-06T18:15:46.337Z,25.43
2019-04-06T18:19:50.751Z,24.17
2019-04-06T18:23:55.295Z,24.67
2019-04-06T18:27:59.559Z,26.33
2019-04-06T18:32:09.885Z,24.73
2019-04-06T18:36:14.109Z,24.33
2019-04-06T18:40:21.710Z,22.90
2019-04-06T18:44:26.265Z,23.87
2019-04-06T18:48:30.592Z,22.00
2019-04-06T18:52:35.020Z,22.47
2019-04-06T18:56:40.093Z,23.83
2019-04-06T19:00:44.624Z,22.47
2019-04-06T19:04:48.953Z,24.70
2019-04-06T19:08:53.523Z,26.63
2019-04-06T19:12:57.829Z,25.73
2019-04-06T19:17:02.449Z,25.43
2019-04-06T19:21:07.219Z,23.67
2019-04-06T19:25:12.675Z,23.60
2019-04-06T19:29:17.209Z,27.00
2019-04-06T19:33:25.167Z,27.30
2019-04-06T19:37:28.159Z,26.73
2019-04-06T19:41:32.660Z,24.60
2019-04-06T19:45:37.194Z,20.43
2019-04-06T19:49:41.682Z,26.93
2019-04-06T19:53:46.114Z,24.03
2019-04-06T19:57:50.677Z,21.50
2019-04-06T20:01:55.526Z,21.87
2019-04-06T20:06:00.576Z,23.20
2019-04-06T20:10:06.206Z,22.93
2019-04-06T20:14:10.730Z,25.40
2019-04-06T20:18:15.211Z,23.13
2019-04-06T20:22:19.610Z,27.23
2019-04-06T20:26:23.967Z,25.93
2019-04-06T20:30:28.439Z,24.63
2019-04-06T20:34:33.299Z,27.63
2019-04-06T20:38:37.954Z,25.80
2019-04-06T20:42:42.232Z,23.87
2019-04-06T20:46:46.628Z,24.10
2019-04-06T20:50:50.981Z,22.80
2019-04-06T20:54:55.938Z,24.20
2019-04-06T20:59:01.397Z,23.40
2019-04-06T21:03:05.716Z,26.63
2019-04-06T21:07:10.146Z,30.80
2019-04-06T21:11:15.101Z,27.73
2019-04-06T21:15:21.070Z,26.83
2019-04-06T21:19:25.977Z,25.57
2019-04-06T21:23:30.686Z,26.03
2019-04-06T21:27:36.112Z,23.70
2019-04-06T21:31:40.721Z,26.50
2019-04-06T21:35:45.749Z,25.97
2019-04-06T21:39:50.271Z,24.10
2019-04-06T21:43:54.647Z,23.30
2019-04-06T21:47:59.452Z,24.13
2019-04-06T21:52:04.931Z,22.97
2019-04-06T21:56:09.809Z,23.80
2019-04-06T22:00:20.127Z,22.80
2019-04-06T22:04:26.743Z,21.53
2019-04-06T22:08:30.563Z,22.03
2019-04-06T22:12:35.034Z,22.50
2019-04-06T22:16:39.335Z,24.00
2019-04-06T22:20:43.857Z,23.67
2019-04-06T22:24:48.475Z,25.60
2019-04-06T22:28:53.494Z,24.90
2019-04-06T22:32:57.834Z,24.30
2019-04-06T22:37:02.627Z,23.33
2019-04-06T22:41:07.975Z,21.23
2019-04-06T22:45:14.174Z,23.90
2019-04-06T22:49:19.012Z,22.40
2019-04-06T22:53:23.638Z,23.13
2019-04-06T22:57:31.752Z,23.80
2019-04-06T23:01:37.819Z,24.87
2019-04-06T23:05:45.870Z,24.50
2019-04-06T23:09:50.095Z,25.73
2019-04-06T23:13:54.315Z,24.67
2019-04-06T23:17:59.093Z,20.57
2019-04-06T23:22:03.591Z,21.13
2019-04-06T23:26:07.882Z,20.73
2019-04-06T23:30:12.277Z,20.90
2019-04-06T23:34:16.419Z,21.80
2019-04-06T23:38:21.094Z,22.07
2019-04-06T23:42:26.144Z,22.53
2019-04-06T23:46:30.511Z,21.10
2019-04-06T23:50:34.731Z,23.43
2019-04-06T23:54:39.885Z,23.30
2019-04-06T23:58:44.343Z,24.30
